sensor_id;sensor_type;location;lat;lon;timestamp;P1;durP1;ratioP1;P2;durP2;ratioP2
11111;SDS011;5609;49.466;8.468;2023-05-18T00:01:07;8.33;;;3.03;;
11111;SDS011;5609;49.466;8.468;2023-05-18T00:03:36;5.87;;;2.70;;
11111;SDS011;5609;49.466;8.468;2023-05-18T00:06:04;7.10;;;2.60;;
11111;SDS011;5609;49.466;8.468;2023-05-18T00:08:32;5.60;;;2.43;;
11111;SDS011;5609;49.466;8.468;2023-05-18T00:10:59;5.37;;;2.63;;
11111;SDS011;5609;49.466;8.468;2023-05-18T00:13:26;8.63;;;2.90;;
11111;SDS011;5609;49.466;8.468;2023-05-18T00:15:53;5.50;;;2.73;;
11111;SDS011;5609;49.466;8.468;2023-05-18T00:18:20;6.13;;;2.90;;
11111;SDS011;5609;49.466;8.468;2023-05-18T00:20:50;6.00;;;2.67;;
11111;SDS011;5609;49.466;8.468;2023-05-18T00:23:24;5.53;;;2.60;;
11111;SDS011;5609;49.466;8.468;2023-05-18T00:25:54;7.30;;;2.50;;
11111;SDS011;5609;49.466;8.468;2023-05-18T00:28:21;4.83;;;2.63;;
11111;SDS011;5609;49.466;8.468;2023-05-18T00:30:48;6.13;;;2.47;;
11111;SDS011;5609;49.466;8.468;2023-05-18T00:33:15;6.77;;;2.60;;
11111;SDS011;5609;49.466;8.468;2023-05-18T00:35:42;7.03;;;2.77;;
11111;SDS011;5609;49.466;8.468;2023-05-18T00:38:09;6.67;;;2.57;;
11111;SDS011;5609;49.466;8.468;2023-05-18T00:40:38;8.03;;;2.73;;
11111;SDS011;5609;49.466;8.468;2023-05-18T00:43:05;4.53;;;2.27;;
11111;SDS011;5609;49.466;8.468;2023-05-18T00:45:32;6.30;;;2.97;;
11111;SDS011;5609;49.466;8.468;2023-05-18T00:47:59;6.60;;;2.40;;
11111;SDS011;5609;49.466;8.468;2023-05-18T00:50:27;6.57;;;2.50;;
11111;SDS011;5609;49.466;8.468;2023-05-18T00:52:54;6.10;;;2.73;;
11111;SDS011;5609;49.466;8.468;2023-05-18T00:55:21;7.23;;;2.90;;
11111;SDS011;5609;49.466;8.468;2023-05-18T00:57:49;6.37;;;2.50;;
11111;SDS011;5609;49.466;8.468;2023-05-18T01:00:20;5.60;;;2.50;;
11111;SDS011;5609;49.466;8.468;2023-05-18T01:02:47;7.60;;;2.73;;
11111;SDS011;5609;49.466;8.468;2023-05-18T01:05:15;6.43;;;2.80;;
11111;SDS011;5609;49.466;8.468;2023-05-18T01:07:44;8.37;;;3.00;;
11111;SDS011;5609;49.466;8.468;2023-05-18T01:10:11;6.20;;;2.50;;
11111;SDS011;5609;49.466;8.468;2023-05-18T01:12:40;6.57;;;2.67;;
11111;SDS011;5609;49.466;8.468;2023-05-18T01:15:12;7.67;;;2.57;;
11111;SDS011;5609;49.466;8.468;2023-05-18T01:17:42;5.60;;;2.73;;
11111;SDS011;5609;49.466;8.468;2023-05-18T01:20:18;7.77;;;2.80;;
11111;SDS011;5609;49.466;8.468;2023-05-18T01:22:59;4.37;;;2.40;;
11111;SDS011;5609;49.466;8.468;2023-05-18T01:25:32;6.40;;;2.60;;
11111;SDS011;5609;49.466;8.468;2023-05-18T01:28:02;6.43;;;2.53;;
11111;SDS011;5609;49.466;8.468;2023-05-18T01:30:32;5.63;;;2.80;;
11111;SDS011;5609;49.466;8.468;2023-05-18T01:32:59;6.23;;;2.60;;
11111;SDS011;5609;49.466;8.468;2023-05-18T01:35:26;8.73;;;2.80;;
11111;SDS011;5609;49.466;8.468;2023-05-18T01:37:53;6.43;;;2.50;;
11111;SDS011;5609;49.466;8.468;2023-05-18T01:40:20;5.13;;;2.70;;
11111;SDS011;5609;49.466;8.468;2023-05-18T01:42:48;6.20;;;2.50;;
11111;SDS011;5609;49.466;8.468;2023-05-18T01:45:20;6.10;;;2.90;;
11111;SDS011;5609;49.466;8.468;2023-05-18T01:47:47;5.93;;;2.67;;
11111;SDS011;5609;49.466;8.468;2023-05-18T01:50:16;5.27;;;2.67;;
11111;SDS011;5609;49.466;8.468;2023-05-18T01:52:45;8.53;;;2.83;;
11111;SDS011;5609;49.466;8.468;2023-05-18T01:55:14;6.10;;;2.57;;
11111;SDS011;5609;49.466;8.468;2023-05-18T01:57:43;7.20;;;2.70;;
11111;SDS011;5609;49.466;8.468;2023-05-18T02:00:10;7.30;;;2.90;;
11111;SDS011;5609;49.466;8.468;2023-05-18T02:02:42;6.53;;;2.40;;
11111;SDS011;5609;49.466;8.468;2023-05-18T02:05:09;5.53;;;2.60;;
11111;SDS011;5609;49.466;8.468;2023-05-18T02:07:36;10.20;;;2.87;;
11111;SDS011;5609;49.466;8.468;2023-05-18T02:10:04;8.60;;;2.73;;
11111;SDS011;5609;49.466;8.468;2023-05-18T02:12:31;6.53;;;2.90;;
11111;SDS011;5609;49.466;8.468;2023-05-18T02:14:58;6.77;;;3.03;;
11111;SDS011;5609;49.466;8.468;2023-05-18T02:17:29;7.43;;;2.90;;
11111;SDS011;5609;49.466;8.468;2023-05-18T02:19:57;5.50;;;2.30;;
11111;SDS011;5609;49.466;8.468;2023-05-18T02:22:24;7.10;;;2.87;;
11111;SDS011;5609;49.466;8.468;2023-05-18T02:24:51;6.20;;;2.97;;
11111;SDS011;5609;49.466;8.468;2023-05-18T02:27:19;8.10;;;2.77;;
11111;SDS011;5609;49.466;8.468;2023-05-18T02:29:46;6.43;;;2.80;;
11111;SDS011;5609;49.466;8.468;2023-05-18T02:32:13;8.03;;;2.90;;
11111;SDS011;5609;49.466;8.468;2023-05-18T02:34:40;6.93;;;3.00;;
11111;SDS011;5609;49.466;8.468;2023-05-18T02:37:08;6.13;;;2.80;;
11111;SDS011;5609;49.466;8.468;2023-05-18T02:39:38;9.00;;;3.50;;
11111;SDS011;5609;49.466;8.468;2023-05-18T02:42:05;8.23;;;2.70;;
11111;SDS011;5609;49.466;8.468;2023-05-18T02:44:32;6.83;;;2.77;;
11111;SDS011;5609;49.466;8.468;2023-05-18T02:46:59;5.47;;;2.87;;
11111;SDS011;5609;49.466;8.468;2023-05-18T02:49:26;5.47;;;2.70;;
11111;SDS011;5609;49.466;8.468;2023-05-18T02:51:53;7.40;;;2.77;;
11111;SDS011;5609;49.466;8.468;2023-05-18T02:54:22;7.17;;;2.83;;
11111;SDS011;5609;49.466;8.468;2023-05-18T02:56:49;6.37;;;3.13;;
11111;SDS011;5609;49.466;8.468;2023-05-18T02:59:20;7.23;;;2.90;;
11111;SDS011;5609;49.466;8.468;2023-05-18T03:01:47;4.90;;;2.70;;
11111;SDS011;5609;49.466;8.468;2023-05-18T03:04:14;5.77;;;3.10;;
11111;SDS011;5609;49.466;8.468;2023-05-18T03:06:41;6.77;;;3.07;;
11111;SDS011;5609;49.466;8.468;2023-05-18T03:09:10;6.93;;;3.53;;
11111;SDS011;5609;49.466;8.468;2023-05-18T03:11:39;7.47;;;3.47;;
11111;SDS011;5609;49.466;8.468;2023-05-18T03:14:06;8.33;;;3.57;;
11111;SDS011;5609;49.466;8.468;2023-05-18T03:16:33;7.27;;;3.40;;
11111;SDS011;5609;49.466;8.468;2023-05-18T03:19:02;8.03;;;3.40;;
11111;SDS011;5609;49.466;8.468;2023-05-18T03:21:29;5.30;;;3.40;;
11111;SDS011;5609;49.466;8.468;2023-05-18T03:23:59;7.87;;;3.63;;
11111;SDS011;5609;49.466;8.468;2023-05-18T03:26:27;8.53;;;4.00;;
11111;SDS011;5609;49.466;8.468;2023-05-18T03:28:56;9.37;;;4.03;;
11111;SDS011;5609;49.466;8.468;2023-05-18T03:31:23;10.17;;;3.80;;
11111;SDS011;5609;49.466;8.468;2023-05-18T03:33:50;9.10;;;3.70;;
11111;SDS011;5609;49.466;8.468;2023-05-18T03:36:17;10.53;;;4.00;;
11111;SDS011;5609;49.466;8.468;2023-05-18T03:38:46;8.43;;;3.97;;
11111;SDS011;5609;49.466;8.468;2023-05-18T03:41:13;5.40;;;3.70;;
11111;SDS011;5609;49.466;8.468;2023-05-18T03:43:40;8.63;;;4.03;;
11111;SDS011;5609;49.466;8.468;2023-05-18T03:46:08;7.87;;;4.00;;
11111;SDS011;5609;49.466;8.468;2023-05-18T03:48:35;6.17;;;3.60;;
11111;SDS011;5609;49.466;8.468;2023-05-18T03:51:03;7.87;;;4.00;;
11111;SDS011;5609;49.466;8.468;2023-05-18T03:53:30;10.93;;;3.90;;
11111;SDS011;5609;49.466;8.468;2023-05-18T03:56:00;9.43;;;4.10;;
11111;SDS011;5609;49.466;8.468;2023-05-18T03:58:27;8.10;;;3.60;;
11111;SDS011;5609;49.466;8.468;2023-05-18T04:00:54;10.00;;;3.83;;
11111;SDS011;5609;49.466;8.468;2023-05-18T04:03:22;11.73;;;3.90;;
11111;SDS011;5609;49.466;8.468;2023-05-18T04:05:50;6.83;;;3.67;;
11111;SDS011;5609;49.466;8.468;2023-05-18T04:08:18;8.40;;;3.23;;
11111;SDS011;5609;49.466;8.468;2023-05-18T04:10:49;7.10;;;3.30;;
11111;SDS011;5609;49.466;8.468;2023-05-18T04:13:16;4.97;;;3.10;;
11111;SDS011;5609;49.466;8.468;2023-05-18T04:15:43;6.50;;;3.40;;
11111;SDS011;5609;49.466;8.468;2023-05-18T04:18:11;9.40;;;3.37;;
11111;SDS011;5609;49.466;8.468;2023-05-18T04:20:40;6.90;;;3.13;;
11111;SDS011;5609;49.466;8.468;2023-05-18T04:23:10;5.87;;;3.07;;
11111;SDS011;5609;49.466;8.468;2023-05-18T04:25:37;9.53;;;3.43;;
11111;SDS011;5609;49.466;8.468;2023-05-18T04:28:05;8.07;;;3.50;;
11111;SDS011;5609;49.466;8.468;2023-05-18T04:30:34;6.90;;;3.93;;
11111;SDS011;5609;49.466;8.468;2023-05-18T04:33:02;10.17;;;5.70;;
11111;SDS011;5609;49.466;8.468;2023-05-18T04:35:30;8.47;;;3.10;;
11111;SDS011;5609;49.466;8.468;2023-05-18T04:37:58;5.23;;;3.03;;
11111;SDS011;5609;49.466;8.468;2023-05-18T04:40:26;6.40;;;3.17;;
11111;SDS011;5609;49.466;8.468;2023-05-18T04:42:57;7.23;;;3.03;;
11111;SDS011;5609;49.466;8.468;2023-05-18T04:45:24;8.77;;;3.00;;
11111;SDS011;5609;49.466;8.468;2023-05-18T04:47:52;4.97;;;2.70;;
11111;SDS011;5609;49.466;8.468;2023-05-18T04:50:19;8.03;;;2.87;;
11111;SDS011;5609;49.466;8.468;2023-05-18T04:52:47;5.07;;;2.87;;
11111;SDS011;5609;49.466;8.468;2023-05-18T04:55:16;7.47;;;3.57;;
11111;SDS011;5609;49.466;8.468;2023-05-18T04:57:47;8.17;;;3.30;;
11111;SDS011;5609;49.466;8.468;2023-05-18T05:00:15;7.23;;;3.10;;
11111;SDS011;5609;49.466;8.468;2023-05-18T05:02:42;6.77;;;3.00;;
11111;SDS011;5609;49.466;8.468;2023-05-18T05:05:09;6.57;;;3.20;;
11111;SDS011;5609;49.466;8.468;2023-05-18T05:07:36;8.37;;;3.03;;
11111;SDS011;5609;49.466;8.468;2023-05-18T05:10:03;9.50;;;3.10;;
11111;SDS011;5609;49.466;8.468;2023-05-18T05:12:32;6.43;;;3.07;;
11111;SDS011;5609;49.466;8.468;2023-05-18T05:15:01;5.03;;;2.97;;
11111;SDS011;5609;49.466;8.468;2023-05-18T05:17:28;9.03;;;3.20;;
11111;SDS011;5609;49.466;8.468;2023-05-18T05:19:55;9.07;;;3.33;;
11111;SDS011;5609;49.466;8.468;2023-05-18T05:22:22;7.20;;;3.03;;
11111;SDS011;5609;49.466;8.468;2023-05-18T05:24:49;6.57;;;3.00;;
11111;SDS011;5609;49.466;8.468;2023-05-18T05:27:16;7.17;;;3.00;;
11111;SDS011;5609;49.466;8.468;2023-05-18T05:29:45;8.97;;;2.93;;
11111;SDS011;5609;49.466;8.468;2023-05-18T05:32:14;5.93;;;3.07;;
11111;SDS011;5609;49.466;8.468;2023-05-18T05:34:41;5.83;;;2.87;;
11111;SDS011;5609;49.466;8.468;2023-05-18T05:37:10;7.60;;;2.90;;
11111;SDS011;5609;49.466;8.468;2023-05-18T05:39:37;6.60;;;2.90;;
11111;SDS011;5609;49.466;8.468;2023-05-18T05:42:05;6.23;;;2.93;;
11111;SDS011;5609;49.466;8.468;2023-05-18T05:44:32;6.27;;;2.87;;
11111;SDS011;5609;49.466;8.468;2023-05-18T05:47:01;9.37;;;3.03;;
11111;SDS011;5609;49.466;8.468;2023-05-18T05:49:28;6.40;;;2.80;;
11111;SDS011;5609;49.466;8.468;2023-05-18T05:51:55;5.30;;;2.87;;
11111;SDS011;5609;49.466;8.468;2023-05-18T05:54:22;6.37;;;2.60;;
11111;SDS011;5609;49.466;8.468;2023-05-18T05:56:49;7.00;;;2.93;;
11111;SDS011;5609;49.466;8.468;2023-05-18T05:59:16;8.30;;;3.03;;
11111;SDS011;5609;49.466;8.468;2023-05-18T06:01:43;8.13;;;2.90;;
11111;SDS011;5609;49.466;8.468;2023-05-18T06:04:12;6.07;;;2.60;;
11111;SDS011;5609;49.466;8.468;2023-05-18T06:06:39;6.63;;;2.70;;
11111;SDS011;5609;49.466;8.468;2023-05-18T06:09:08;7.17;;;2.67;;
11111;SDS011;5609;49.466;8.468;2023-05-18T06:11:35;6.27;;;2.53;;
11111;SDS011;5609;49.466;8.468;2023-05-18T06:14:02;6.67;;;2.67;;
11111;SDS011;5609;49.466;8.468;2023-05-18T06:16:30;3.70;;;2.43;;
11111;SDS011;5609;49.466;8.468;2023-05-18T06:18:57;5.37;;;2.27;;
11111;SDS011;5609;49.466;8.468;2023-05-18T06:21:25;4.40;;;2.40;;
11111;SDS011;5609;49.466;8.468;2023-05-18T06:23:52;3.83;;;2.20;;
11111;SDS011;5609;49.466;8.468;2023-05-18T06:26:20;7.13;;;2.33;;
11111;SDS011;5609;49.466;8.468;2023-05-18T06:28:48;6.73;;;2.60;;
11111;SDS011;5609;49.466;8.468;2023-05-18T06:31:15;4.53;;;2.40;;
11111;SDS011;5609;49.466;8.468;2023-05-18T06:33:43;5.30;;;2.73;;
11111;SDS011;5609;49.466;8.468;2023-05-18T06:36:10;5.33;;;2.40;;
11111;SDS011;5609;49.466;8.468;2023-05-18T06:38:39;6.13;;;2.40;;
11111;SDS011;5609;49.466;8.468;2023-05-18T06:41:06;7.10;;;2.30;;
11111;SDS011;5609;49.466;8.468;2023-05-18T06:43:33;5.60;;;2.20;;
11111;SDS011;5609;49.466;8.468;2023-05-18T06:46:00;6.23;;;2.23;;
11111;SDS011;5609;49.466;8.468;2023-05-18T06:48:27;7.57;;;2.30;;
11111;SDS011;5609;49.466;8.468;2023-05-18T06:50:55;6.83;;;2.80;;
11111;SDS011;5609;49.466;8.468;2023-05-18T06:53:22;6.73;;;2.63;;
11111;SDS011;5609;49.466;8.468;2023-05-18T06:55:50;5.10;;;2.20;;
11111;SDS011;5609;49.466;8.468;2023-05-18T06:58:17;4.33;;;2.23;;
11111;SDS011;5609;49.466;8.468;2023-05-18T07:00:44;6.87;;;2.43;;
11111;SDS011;5609;49.466;8.468;2023-05-18T07:03:12;5.93;;;2.27;;
11111;SDS011;5609;49.466;8.468;2023-05-18T07:05:39;6.20;;;2.37;;
11111;SDS011;5609;49.466;8.468;2023-05-18T07:08:06;5.87;;;2.73;;
11111;SDS011;5609;49.466;8.468;2023-05-18T07:10:33;6.43;;;2.60;;
11111;SDS011;5609;49.466;8.468;2023-05-18T07:13:02;5.70;;;2.63;;
11111;SDS011;5609;49.466;8.468;2023-05-18T07:15:29;5.00;;;2.43;;
11111;SDS011;5609;49.466;8.468;2023-05-18T07:17:56;7.73;;;2.60;;
11111;SDS011;5609;49.466;8.468;2023-05-18T07:20:23;7.63;;;2.43;;
11111;SDS011;5609;49.466;8.468;2023-05-18T07:22:50;6.13;;;2.83;;
11111;SDS011;5609;49.466;8.468;2023-05-18T07:25:19;7.63;;;2.30;;
11111;SDS011;5609;49.466;8.468;2023-05-18T07:27:46;5.23;;;2.50;;
11111;SDS011;5609;49.466;8.468;2023-05-18T07:30:14;5.67;;;2.40;;
11111;SDS011;5609;49.466;8.468;2023-05-18T07:32:41;6.53;;;2.43;;
11111;SDS011;5609;49.466;8.468;2023-05-18T07:35:09;5.90;;;2.60;;
11111;SDS011;5609;49.466;8.468;2023-05-18T07:37:37;5.50;;;2.50;;
11111;SDS011;5609;49.466;8.468;2023-05-18T07:40:04;5.13;;;2.60;;
11111;SDS011;5609;49.466;8.468;2023-05-18T07:42:33;7.03;;;2.60;;
11111;SDS011;5609;49.466;8.468;2023-05-18T07:45:00;5.50;;;2.40;;
11111;SDS011;5609;49.466;8.468;2023-05-18T07:47:29;8.40;;;2.83;;
11111;SDS011;5609;49.466;8.468;2023-05-18T07:49:56;4.47;;;2.50;;
11111;SDS011;5609;49.466;8.468;2023-05-18T07:52:23;6.07;;;2.37;;
11111;SDS011;5609;49.466;8.468;2023-05-18T07:54:51;7.67;;;2.80;;
11111;SDS011;5609;49.466;8.468;2023-05-18T07:57:18;8.90;;;2.43;;
11111;SDS011;5609;49.466;8.468;2023-05-18T07:59:45;5.53;;;2.20;;
11111;SDS011;5609;49.466;8.468;2023-05-18T08:02:12;5.83;;;2.50;;
11111;SDS011;5609;49.466;8.468;2023-05-18T08:04:41;6.70;;;2.47;;
11111;SDS011;5609;49.466;8.468;2023-05-18T08:07:08;8.17;;;2.60;;
11111;SDS011;5609;49.466;8.468;2023-05-18T08:09:36;6.43;;;2.60;;
11111;SDS011;5609;49.466;8.468;2023-05-18T08:12:03;5.33;;;2.30;;
11111;SDS011;5609;49.466;8.468;2023-05-18T08:14:30;7.03;;;2.60;;
11111;SDS011;5609;49.466;8.468;2023-05-18T08:16:58;6.60;;;2.53;;
11111;SDS011;5609;49.466;8.468;2023-05-18T08:19:25;6.70;;;2.40;;
11111;SDS011;5609;49.466;8.468;2023-05-18T08:21:53;7.23;;;2.30;;
11111;SDS011;5609;49.466;8.468;2023-05-18T08:24:20;7.70;;;2.70;;
11111;SDS011;5609;49.466;8.468;2023-05-18T08:26:47;7.00;;;2.43;;
11111;SDS011;5609;49.466;8.468;2023-05-18T08:29:16;7.03;;;2.30;;
11111;SDS011;5609;49.466;8.468;2023-05-18T08:31:43;5.23;;;2.30;;
11111;SDS011;5609;49.466;8.468;2023-05-18T08:34:11;4.97;;;2.30;;
11111;SDS011;5609;49.466;8.468;2023-05-18T08:36:40;6.47;;;2.63;;
11111;SDS011;5609;49.466;8.468;2023-05-18T08:39:11;6.67;;;2.67;;
11111;SDS011;5609;49.466;8.468;2023-05-18T08:41:39;6.30;;;2.47;;
11111;SDS011;5609;49.466;8.468;2023-05-18T08:44:08;7.73;;;2.53;;
11111;SDS011;5609;49.466;8.468;2023-05-18T08:46:38;7.20;;;2.40;;
11111;SDS011;5609;49.466;8.468;2023-05-18T08:49:06;5.67;;;2.40;;
11111;SDS011;5609;49.466;8.468;2023-05-18T08:51:35;5.97;;;2.50;;
11111;SDS011;5609;49.466;8.468;2023-05-18T08:54:03;5.63;;;2.33;;
11111;SDS011;5609;49.466;8.468;2023-05-18T08:56:32;6.97;;;2.47;;
11111;SDS011;5609;49.466;8.468;2023-05-18T08:58:59;9.83;;;2.60;;
11111;SDS011;5609;49.466;8.468;2023-05-18T09:01:31;5.07;;;2.50;;
11111;SDS011;5609;49.466;8.468;2023-05-18T09:03:58;5.87;;;2.30;;
11111;SDS011;5609;49.466;8.468;2023-05-18T09:06:26;6.83;;;2.40;;
11111;SDS011;5609;49.466;8.468;2023-05-18T09:08:53;5.47;;;2.60;;
11111;SDS011;5609;49.466;8.468;2023-05-18T09:11:22;5.87;;;2.37;;
11111;SDS011;5609;49.466;8.468;2023-05-18T09:13:51;7.80;;;2.57;;
11111;SDS011;5609;49.466;8.468;2023-05-18T09:16:18;7.77;;;2.47;;
11111;SDS011;5609;49.466;8.468;2023-05-18T09:18:45;6.13;;;2.50;;
11111;SDS011;5609;49.466;8.468;2023-05-18T09:21:12;5.57;;;2.50;;
11111;SDS011;5609;49.466;8.468;2023-05-18T09:23:40;4.13;;;2.33;;
11111;SDS011;5609;49.466;8.468;2023-05-18T09:26:07;6.97;;;2.37;;
11111;SDS011;5609;49.466;8.468;2023-05-18T09:28:35;6.50;;;2.50;;
11111;SDS011;5609;49.466;8.468;2023-05-18T09:31:04;6.93;;;2.67;;
11111;SDS011;5609;49.466;8.468;2023-05-18T09:33:33;6.77;;;2.77;;
11111;SDS011;5609;49.466;8.468;2023-05-18T09:36:01;5.43;;;2.30;;
11111;SDS011;5609;49.466;8.468;2023-05-18T09:38:29;5.93;;;2.83;;
11111;SDS011;5609;49.466;8.468;2023-05-18T09:40:56;7.27;;;2.50;;
11111;SDS011;5609;49.466;8.468;2023-05-18T09:43:25;5.80;;;2.73;;
11111;SDS011;5609;49.466;8.468;2023-05-18T09:45:52;6.27;;;2.53;;
11111;SDS011;5609;49.466;8.468;2023-05-18T09:48:20;6.97;;;2.40;;
11111;SDS011;5609;49.466;8.468;2023-05-18T09:50:48;8.63;;;2.90;;
11111;SDS011;5609;49.466;8.468;2023-05-18T09:53:15;5.57;;;2.60;;
11111;SDS011;5609;49.466;8.468;2023-05-18T09:55:46;6.17;;;2.40;;
11111;SDS011;5609;49.466;8.468;2023-05-18T09:58:13;4.73;;;2.40;;
11111;SDS011;5609;49.466;8.468;2023-05-18T10:00:41;8.03;;;2.70;;
11111;SDS011;5609;49.466;8.468;2023-05-18T10:03:15;5.80;;;2.40;;
11111;SDS011;5609;49.466;8.468;2023-05-18T10:05:44;5.47;;;2.50;;
11111;SDS011;5609;49.466;8.468;2023-05-18T10:08:12;6.87;;;2.80;;
11111;SDS011;5609;49.466;8.468;2023-05-18T10:10:40;4.40;;;2.37;;
11111;SDS011;5609;49.466;8.468;2023-05-18T10:13:10;5.30;;;2.73;;
11111;SDS011;5609;49.466;8.468;2023-05-18T10:15:44;5.17;;;2.40;;
11111;SDS011;5609;49.466;8.468;2023-05-18T10:18:11;6.80;;;2.50;;
11111;SDS011;5609;49.466;8.468;2023-05-18T10:20:39;5.03;;;2.50;;
11111;SDS011;5609;49.466;8.468;2023-05-18T10:23:08;6.10;;;2.30;;
11111;SDS011;5609;49.466;8.468;2023-05-18T10:25:35;4.53;;;2.10;;
11111;SDS011;5609;49.466;8.468;2023-05-18T10:28:05;7.93;;;2.47;;
11111;SDS011;5609;49.466;8.468;2023-05-18T10:30:32;6.33;;;2.50;;
11111;SDS011;5609;49.466;8.468;2023-05-18T10:33:00;6.10;;;2.50;;
11111;SDS011;5609;49.466;8.468;2023-05-18T10:35:28;7.57;;;2.40;;
11111;SDS011;5609;49.466;8.468;2023-05-18T10:37:56;6.47;;;2.90;;
11111;SDS011;5609;49.466;8.468;2023-05-18T10:40:24;7.13;;;2.60;;
11111;SDS011;5609;49.466;8.468;2023-05-18T10:42:52;5.03;;;2.23;;
11111;SDS011;5609;49.466;8.468;2023-05-18T10:45:22;6.63;;;2.33;;
11111;SDS011;5609;49.466;8.468;2023-05-18T10:47:49;6.07;;;2.30;;
11111;SDS011;5609;49.466;8.468;2023-05-18T10:50:19;5.07;;;2.40;;
11111;SDS011;5609;49.466;8.468;2023-05-18T10:52:46;5.10;;;2.30;;
11111;SDS011;5609;49.466;8.468;2023-05-18T10:55:14;5.17;;;2.40;;
11111;SDS011;5609;49.466;8.468;2023-05-18T10:57:43;6.80;;;2.50;;
11111;SDS011;5609;49.466;8.468;2023-05-18T11:00:11;5.67;;;2.77;;
11111;SDS011;5609;49.466;8.468;2023-05-18T11:02:38;4.83;;;2.50;;
11111;SDS011;5609;49.466;8.468;2023-05-18T11:05:07;6.97;;;2.90;;
11111;SDS011;5609;49.466;8.468;2023-05-18T11:07:34;6.50;;;2.27;;
11111;SDS011;5609;49.466;8.468;2023-05-18T11:10:02;4.63;;;2.40;;
11111;SDS011;5609;49.466;8.468;2023-05-18T11:12:30;5.80;;;2.50;;
11111;SDS011;5609;49.466;8.468;2023-05-18T11:14:59;6.50;;;2.63;;
11111;SDS011;5609;49.466;8.468;2023-05-18T11:17:27;6.50;;;2.50;;
11111;SDS011;5609;49.466;8.468;2023-05-18T11:20:10;7.00;;;2.43;;
11111;SDS011;5609;49.466;8.468;2023-05-18T11:22:44;6.83;;;2.53;;
11111;SDS011;5609;49.466;8.468;2023-05-18T11:27:56;5.27;;;2.37;;
11111;SDS011;5609;49.466;8.468;2023-05-18T11:30:27;5.23;;;2.30;;
11111;SDS011;5609;49.466;8.468;2023-05-18T11:33:06;4.83;;;2.20;;
11111;SDS011;5609;49.466;8.468;2023-05-18T11:35:35;5.33;;;2.33;;
11111;SDS011;5609;49.466;8.468;2023-05-18T11:38:19;5.57;;;2.07;;
11111;SDS011;5609;49.466;8.468;2023-05-18T11:40:47;6.47;;;2.67;;
11111;SDS011;5609;49.466;8.468;2023-05-18T11:43:20;5.80;;;2.40;;
11111;SDS011;5609;49.466;8.468;2023-05-18T11:45:52;6.23;;;2.50;;
11111;SDS011;5609;49.466;8.468;2023-05-18T11:48:20;5.07;;;2.37;;
11111;SDS011;5609;49.466;8.468;2023-05-18T11:50:47;5.03;;;2.50;;
11111;SDS011;5609;49.466;8.468;2023-05-18T11:53:15;5.30;;;2.60;;
11111;SDS011;5609;49.466;8.468;2023-05-18T11:55:42;5.27;;;2.30;;
11111;SDS011;5609;49.466;8.468;2023-05-18T11:58:10;5.67;;;2.30;;
11111;SDS011;5609;49.466;8.468;2023-05-18T12:00:43;4.97;;;2.27;;
11111;SDS011;5609;49.466;8.468;2023-05-18T12:03:11;4.83;;;2.20;;
11111;SDS011;5609;49.466;8.468;2023-05-18T12:05:39;5.33;;;2.50;;
11111;SDS011;5609;49.466;8.468;2023-05-18T12:08:08;6.23;;;2.23;;
11111;SDS011;5609;49.466;8.468;2023-05-18T12:10:35;3.90;;;2.00;;
11111;SDS011;5609;49.466;8.468;2023-05-18T12:13:04;4.53;;;2.00;;
11111;SDS011;5609;49.466;8.468;2023-05-18T12:15:31;5.63;;;2.30;;
11111;SDS011;5609;49.466;8.468;2023-05-18T12:17:59;4.47;;;2.20;;
11111;SDS011;5609;49.466;8.468;2023-05-18T12:20:27;5.87;;;2.50;;
11111;SDS011;5609;49.466;8.468;2023-05-18T12:22:55;7.03;;;2.40;;
11111;SDS011;5609;49.466;8.468;2023-05-18T12:25:22;5.23;;;2.30;;
11111;SDS011;5609;49.466;8.468;2023-05-18T12:27:50;5.60;;;2.20;;
11111;SDS011;5609;49.466;8.468;2023-05-18T12:30:18;4.97;;;2.30;;
11111;SDS011;5609;49.466;8.468;2023-05-18T12:32:45;5.57;;;2.30;;
11111;SDS011;5609;49.466;8.468;2023-05-18T12:35:12;6.37;;;2.23;;
11111;SDS011;5609;49.466;8.468;2023-05-18T12:37:44;5.53;;;2.40;;
11111;SDS011;5609;49.466;8.468;2023-05-18T12:40:12;3.40;;;2.20;;
11111;SDS011;5609;49.466;8.468;2023-05-18T12:42:39;4.13;;;2.00;;
11111;SDS011;5609;49.466;8.468;2023-05-18T12:45:07;5.37;;;2.50;;
11111;SDS011;5609;49.466;8.468;2023-05-18T12:47:39;7.53;;;2.20;;
11111;SDS011;5609;49.466;8.468;2023-05-18T12:50:07;5.00;;;2.23;;
11111;SDS011;5609;49.466;8.468;2023-05-18T12:52:34;4.87;;;2.50;;
11111;SDS011;5609;49.466;8.468;2023-05-18T12:55:03;5.23;;;2.43;;
11111;SDS011;5609;49.466;8.468;2023-05-18T12:57:30;4.13;;;2.10;;
11111;SDS011;5609;49.466;8.468;2023-05-18T12:59:57;4.83;;;2.00;;
11111;SDS011;5609;49.466;8.468;2023-05-18T13:02:28;3.33;;;2.20;;
11111;SDS011;5609;49.466;8.468;2023-05-18T13:04:59;7.83;;;2.43;;
11111;SDS011;5609;49.466;8.468;2023-05-18T13:07:27;4.57;;;2.20;;
11111;SDS011;5609;49.466;8.468;2023-05-18T13:09:58;5.17;;;2.20;;
11111;SDS011;5609;49.466;8.468;2023-05-18T13:12:36;5.03;;;2.30;;
11111;SDS011;5609;49.466;8.468;2023-05-18T13:15:07;3.90;;;2.20;;
11111;SDS011;5609;49.466;8.468;2023-05-18T13:17:34;4.60;;;2.10;;
11111;SDS011;5609;49.466;8.468;2023-05-18T13:20:01;4.47;;;2.60;;
11111;SDS011;5609;49.466;8.468;2023-05-18T13:22:29;5.03;;;2.20;;
11111;SDS011;5609;49.466;8.468;2023-05-18T13:24:56;3.63;;;2.10;;
11111;SDS011;5609;49.466;8.468;2023-05-18T13:27:23;4.10;;;2.00;;
11111;SDS011;5609;49.466;8.468;2023-05-18T13:29:52;4.53;;;2.07;;
11111;SDS011;5609;49.466;8.468;2023-05-18T13:32:22;6.57;;;2.60;;
11111;SDS011;5609;49.466;8.468;2023-05-18T13:34:49;5.93;;;2.40;;
11111;SDS011;5609;49.466;8.468;2023-05-18T13:37:16;5.73;;;2.10;;
11111;SDS011;5609;49.466;8.468;2023-05-18T13:39:44;6.20;;;2.13;;
11111;SDS011;5609;49.466;8.468;2023-05-18T13:42:11;4.93;;;2.40;;
11111;SDS011;5609;49.466;8.468;2023-05-18T13:44:38;3.93;;;2.30;;
11111;SDS011;5609;49.466;8.468;2023-05-18T13:47:06;5.63;;;2.20;;
11111;SDS011;5609;49.466;8.468;2023-05-18T13:49:33;4.63;;;2.20;;
11111;SDS011;5609;49.466;8.468;2023-05-18T13:52:00;5.23;;;2.30;;
11111;SDS011;5609;49.466;8.468;2023-05-18T13:54:27;4.83;;;2.40;;
11111;SDS011;5609;49.466;8.468;2023-05-18T13:56:55;4.37;;;2.17;;
11111;SDS011;5609;49.466;8.468;2023-05-18T13:59:22;5.10;;;2.30;;
11111;SDS011;5609;49.466;8.468;2023-05-18T14:01:49;5.37;;;2.30;;
11111;SDS011;5609;49.466;8.468;2023-05-18T14:04:17;4.20;;;2.37;;
11111;SDS011;5609;49.466;8.468;2023-05-18T14:06:44;5.97;;;2.40;;
11111;SDS011;5609;49.466;8.468;2023-05-18T14:09:11;5.07;;;2.07;;
11111;SDS011;5609;49.466;8.468;2023-05-18T14:11:38;7.63;;;2.40;;
11111;SDS011;5609;49.466;8.468;2023-05-18T14:14:05;5.40;;;2.40;;
11111;SDS011;5609;49.466;8.468;2023-05-18T14:16:32;5.77;;;2.00;;
11111;SDS011;5609;49.466;8.468;2023-05-18T14:19:00;4.70;;;2.33;;
11111;SDS011;5609;49.466;8.468;2023-05-18T14:21:28;4.30;;;2.00;;
11111;SDS011;5609;49.466;8.468;2023-05-18T14:23:56;6.73;;;2.40;;
11111;SDS011;5609;49.466;8.468;2023-05-18T14:26:27;5.47;;;2.47;;
11111;SDS011;5609;49.466;8.468;2023-05-18T14:28:54;6.33;;;2.40;;
11111;SDS011;5609;49.466;8.468;2023-05-18T14:31:21;3.60;;;2.00;;
11111;SDS011;5609;49.466;8.468;2023-05-18T14:33:48;6.23;;;2.20;;
11111;SDS011;5609;49.466;8.468;2023-05-18T14:36:15;6.13;;;2.30;;
11111;SDS011;5609;49.466;8.468;2023-05-18T14:38:44;4.90;;;2.20;;
11111;SDS011;5609;49.466;8.468;2023-05-18T14:41:11;6.43;;;2.37;;
11111;SDS011;5609;49.466;8.468;2023-05-18T14:43:38;6.63;;;2.33;;
11111;SDS011;5609;49.466;8.468;2023-05-18T14:46:05;5.83;;;2.47;;
11111;SDS011;5609;49.466;8.468;2023-05-18T14:48:32;4.33;;;2.30;;
11111;SDS011;5609;49.466;8.468;2023-05-18T14:50:59;5.43;;;2.30;;
11111;SDS011;5609;49.466;8.468;2023-05-18T14:53:26;5.50;;;2.30;;
11111;SDS011;5609;49.466;8.468;2023-05-18T14:55:54;5.80;;;2.33;;
11111;SDS011;5609;49.466;8.468;2023-05-18T14:58:21;4.97;;;2.23;;
11111;SDS011;5609;49.466;8.468;2023-05-18T15:00:48;4.53;;;2.13;;
11111;SDS011;5609;49.466;8.468;2023-05-18T15:03:16;3.77;;;2.17;;
11111;SDS011;5609;49.466;8.468;2023-05-18T15:05:43;4.27;;;2.17;;
11111;SDS011;5609;49.466;8.468;2023-05-18T15:08:10;8.83;;;2.13;;